»·PEaware :: SWA761 KLAS-KPHX

SWA761 :: KLAS-KPHX

FLIGHT INFORMATION

Flight Status: Arrived
Operator:
Southwest Airlines
More flights by this operator :: More flights under this callsign
Pilot: Nick B. (16803)
Aircraft: BOEING 737-700
(B737)
More flights by this aircraft type
Origin: KLAS McCarran Intl
United States
Destination: KPHX Phoenix Sky Harbor Intl
United States
More flights between these airports :: More routes between these airports
Route: +PRFUM3 PRFUM WOTRO BRUSR1
File this flight plan on PilotEdge
Remarks:
Altitude:
(Current/Filed)
29,000ft
Speed:
(Current/Filed)
450kts
Departed: 30-Sep-17 02:14 PM
Arrived: 30-Sep-17 03:00 PM
Distance/Time
Traveled:
222nm/0:46
Distance/Time
To Go:
Arrived

Flight Plot

Page will automatically refresh every two minutes.


Map Options




Map Legend


Flown Route
Filed Route
Departure Airport
Arrival Airport
Navaid (VOR, NDB)
Fix

Horizontal Profiles

Position Reports

Time Latitude Longitude Heading Altitude Ground
Speed
30-Sep-17 13:49 36.082900 -115.150286 259 2189ft 0kts
30-Sep-17 13:50 36.082900 -115.150286 259 2189ft 0kts
30-Sep-17 13:51 36.082900 -115.150286 259 2189ft 0kts
30-Sep-17 13:52 36.082900 -115.150286 259 2189ft 0kts
30-Sep-17 13:53 36.082900 -115.150286 259 2189ft 0kts
30-Sep-17 13:54 36.082900 -115.150286 259 2189ft 0kts
30-Sep-17 13:55 36.082900 -115.150286 259 2189ft 0kts
30-Sep-17 13:56 36.082900 -115.150286 259 2189ft 0kts
30-Sep-17 13:57 36.082900 -115.150286 259 2188ft 0kts
30-Sep-17 13:58 36.082900 -115.150286 259 2188ft 0kts
30-Sep-17 13:59 36.082900 -115.150286 259 2188ft 0kts
30-Sep-17 14:00 36.082900 -115.150286 259 2188ft 0kts
30-Sep-17 14:01 36.082900 -115.150286 259 2188ft 0kts
30-Sep-17 14:02 36.082900 -115.150286 259 2188ft 0kts
30-Sep-17 14:03 36.082900 -115.150286 259 2188ft 0kts
30-Sep-17 14:04 36.082900 -115.150286 259 2188ft 0kts
30-Sep-17 14:05 36.082900 -115.150286 259 2188ft 0kts
30-Sep-17 14:06 36.082923 -115.150118 259 2188ft 1kts
30-Sep-17 14:07 36.083185 -115.149978 159 2188ft 0kts
30-Sep-17 14:08 36.083191 -115.149981 159 2188ft 0kts
30-Sep-17 14:09 36.083191 -115.149981 159 2188ft 0kts
30-Sep-17 14:10 36.083191 -115.149981 159 2188ft 0kts
30-Sep-17 14:11 36.081696 -115.149283 159 2188ft 17kts
30-Sep-17 14:12 36.078816 -115.147241 156 2188ft 19kts
30-Sep-17 14:13 36.078370 -115.144846 152 2188ft 12kts
30-Sep-17 14:14 36.077430 -115.137732 87 2188ft 31kts
30-Sep-17 14:15 36.077545 -115.128064 90 2188ft 28kts
30-Sep-17 14:16 36.076360 -115.121961 275 2188ft 12kts
30-Sep-17 14:17 36.076410 -115.122842 273 2188ft 20kts
30-Sep-17 14:18 36.076386 -115.164318 266 3116ft 165kts
30-Sep-17 14:19 36.076372 -115.226247 267 5027ft 217kts
30-Sep-17 14:20 36.030036 -115.275143 196 6622ft 267kts
30-Sep-17 14:21 35.956023 -115.294376 169 6858ft 278kts
30-Sep-17 14:22 35.880718 -115.263972 147 10190ft 296kts
30-Sep-17 14:23 35.842335 -115.162256 106 11983ft 370kts
30-Sep-17 14:24 35.822573 -115.033542 87 14736ft 396kts
30-Sep-17 14:25 35.834823 -114.895575 83 17290ft 415kts
30-Sep-17 14:26 35.845557 -114.751219 83 19585ft 432kts
30-Sep-17 14:27 35.848910 -114.602145 104 19853ft 438kts
30-Sep-17 14:28 35.789417 -114.471383 125 20828ft 437kts
30-Sep-17 14:29 35.722619 -114.346422 124 20850ft 440kts
30-Sep-17 14:30 35.654206 -114.217784 124 20890ft 462kts
30-Sep-17 14:31 35.581027 -114.081017 124 20917ft 487kts
30-Sep-17 14:32 35.506215 -113.941970 124 20915ft 487kts
30-Sep-17 14:33 35.431414 -113.803701 125 20955ft 487kts
30-Sep-17 14:34 35.356414 -113.665579 125 20951ft 487kts
30-Sep-17 14:35 35.281566 -113.527025 125 20936ft 487kts
30-Sep-17 14:36 35.206361 -113.389466 125 20928ft 487kts
30-Sep-17 14:37 35.119287 -113.263759 139 20916ft 483kts
30-Sep-17 14:38 35.019302 -113.154677 140 20908ft 483kts
30-Sep-17 14:39 34.919660 -113.045232 140 20897ft 483kts
30-Sep-17 14:40 34.820024 -112.935125 139 20894ft 483kts
30-Sep-17 14:41 34.720432 -112.825606 139 20887ft 483kts
30-Sep-17 14:42 34.622821 -112.718690 140 20586ft 440kts
30-Sep-17 14:43 34.538259 -112.626365 140 19590ft 391kts
30-Sep-17 14:44 34.457184 -112.538086 140 18592ft 390kts
30-Sep-17 14:45 34.377611 -112.451673 141 17589ft 376kts
30-Sep-17 14:46 34.300627 -112.368102 140 16589ft 369kts
30-Sep-17 14:47 34.225115 -112.286460 141 15590ft 360kts
30-Sep-17 14:48 34.150854 -112.206561 141 14583ft 353kts
30-Sep-17 14:49 34.076953 -112.134653 156 13640ft 317kts
30-Sep-17 14:50 33.998354 -112.100962 165 13008ft 294kts
30-Sep-17 14:51 33.917933 -112.068611 164 12380ft 314kts
30-Sep-17 14:52 33.837133 -112.035837 164 11055ft 295kts
30-Sep-17 14:53 33.761621 -112.005251 164 9679ft 277kts
30-Sep-17 14:54 33.689162 -111.975963 164 8494ft 273kts
30-Sep-17 14:55 33.618886 -111.947559 163 7833ft 259kts
30-Sep-17 14:56 33.551936 -111.920542 163 7224ft 235kts
30-Sep-17 14:57 33.524272 -111.857969 85 6254ft 227kts
30-Sep-17 14:58 33.490154 -111.826751 196 5419ft 178kts
30-Sep-17 14:59 33.441818 -111.822014 197 4376ft 162kts
30-Sep-17 15:00 33.429240 -111.865427 266 3329ft 140kts
30-Sep-17 15:01 33.428800 -111.912322 268 2585ft 141kts
30-Sep-17 15:02 33.428830 -111.961578 269 1739ft 157kts
30-Sep-17 15:03 33.428881 -112.009331 268 1155ft 133kts
30-Sep-17 15:04 33.429757 -112.027005 1 1142ft 13kts
30-Sep-17 15:05 33.431586 -112.026947 1 1142ft 0kts
30-Sep-17 15:06 33.431586 -112.026947 1 1142ft 0kts
30-Sep-17 15:07 33.431586 -112.026947 1 1142ft 0kts
30-Sep-17 15:08 33.432115 -112.020087 88 1142ft 38kts
30-Sep-17 15:09 33.431930 -112.015198 84 1142ft 43kts
30-Sep-17 15:10 33.433679 -112.007417 351 1142ft 4kts
30-Sep-17 15:11 33.434527 -112.008162 260 1142ft 0kts
30-Sep-17 15:12 33.434527 -112.008162 260 1142ft 0kts
30-Sep-17 15:13 33.434527 -112.008162 260 1142ft 0kts

Navigation Log

Ident Type
1. KLAS Airport
2. ROPPR Fix
3. CEASR Fix
4. HITME Fix
5. WINDS Fix
6. KADDY Fix
7. PRFUM Fix
8. WOTRO Fix
9. KPHX Airport